Time;durP1;ratioP1;P1;durP2;ratioP2;P2;SDS_P1;SDS_P2;PMS_P1;PMS_P2;Temp;Humidity;BMP_temperature;BMP_pressure;BME280_temperature;BME280_humidity;BME280_pressure;Samples;Min_cycle;Max_cycle;Signal;HPM_P1;HPM_P2
2022/01/01 00:02:01;;;;;;;7.18;4.97;;;;;;;11.48;63.04;99995.28;5093476;28;20031;-50
2022/01/01 00:04:27;;;;;;;6.95;4.72;;;;;;;11.44;62.31;99986.06;5093445;28;20047;-49
2022/01/01 00:06:52;;;;;;;8.43;5.03;;;;;;;11.61;61.96;99985.66;5093167;28;20055;-47
2022/01/01 00:09:18;;;;;;;7.90;4.78;;;;;;;11.58;61.65;99984.22;5093436;28;20020;-50
2022/01/01 00:11:43;;;;;;;6.72;4.25;;;;;;;11.34;62.37;99978.44;5093270;28;20020;-49
2022/01/01 00:14:08;;;;;;;6.50;4.25;;;;;;;11.31;62.55;99975.38;5093345;28;20057;-48
2022/01/01 00:16:34;;;;;;;5.78;3.80;;;;;;;11.38;62.64;99978.84;5093108;28;20020;-47
2022/01/01 00:19:00;;;;;;;5.20;3.85;;;;;;;11.37;63.01;99971.09;5093280;28;20020;-47
2022/01/01 00:21:25;;;;;;;4.93;3.38;;;;;;;11.34;62.15;99965.09;5091752;28;20028;-47
2022/01/01 00:23:51;;;;;;;4.78;3.30;;;;;;;11.49;62.13;99969.44;5074878;28;20055;-49
2022/01/01 00:26:16;;;;;;;6.53;3.70;;;;;;;11.40;62.53;99968.81;5093005;28;20480;-50
2022/01/01 00:28:42;;;;;;;5.28;3.47;;;;;;;11.25;62.12;99952.19;5092840;28;20100;-51
2022/01/01 00:31:07;;;;;;;5.60;3.53;;;;;;;11.08;63.36;99967.72;5093133;28;20384;-48
2022/01/01 00:33:33;;;;;;;6.05;3.40;;;;;;;11.08;62.58;99946.41;5093318;28;20027;-47
2022/01/01 00:35:58;;;;;;;3.70;2.97;;;;;;;11.06;63.37;99957.28;5091369;28;20499;-48
2022/01/01 00:38:24;;;;;;;4.20;2.90;;;;;;;11.29;62.38;99956.09;5092891;28;20119;-49
2022/01/01 00:40:50;;;;;;;5.80;2.70;;;;;;;11.41;62.51;99954.47;5093005;28;20399;-48
2022/01/01 00:43:15;;;;;;;5.20;3.03;;;;;;;11.70;61.57;99961.25;5092879;28;20027;-49
2022/01/01 00:45:41;;;;;;;4.63;2.90;;;;;;;11.68;61.34;99944.63;5092836;28;20031;-49
2022/01/01 00:48:06;;;;;;;4.28;3.03;;;;;;;11.70;61.41;99961.25;5092519;28;20549;-48
2022/01/01 00:50:32;;;;;;;3.78;2.90;;;;;;;11.68;61.07;99952.63;5092698;28;20031;-50
2022/01/01 00:53:01;;;;;;;7.15;3.05;;;;;;;11.67;60.72;99950.16;5077435;28;20397;-48
2022/01/01 00:55:26;;;;;;;4.38;3.05;;;;;;;11.64;61.29;99947.94;5087820;28;20035;-48
2022/01/01 00:57:52;;;;;;;3.40;2.70;;;;;;;11.77;61.05;99945.25;5072059;28;20047;-48
2022/01/01 01:00:17;;;;;;;4.15;3.03;;;;;;;11.87;60.92;99950.16;5078765;28;20392;-51
2022/01/01 01:02:43;;;;;;;3.90;2.58;;;;;;;11.92;60.92;99943.22;5073202;28;20050;-49
2022/01/01 01:05:08;;;;;;;3.70;2.70;;;;;;;11.96;60.55;99940.16;5092116;28;20039;-48
2022/01/01 01:07:34;;;;;;;4.20;2.63;;;;;;;11.95;59.79;99936.63;5090630;28;20085;-47
2022/01/01 01:09:59;;;;;;;3.58;2.60;;;;;;;11.85;60.20;99930.88;5091366;28;20020;-47
2022/01/01 01:12:32;;;;;;;3.28;2.58;;;;;;;11.90;60.43;99931.13;5091262;28;20016;-48
2022/01/01 01:14:58;;;;;;;3.67;2.35;;;;;;;11.84;60.86;99918.56;5091330;28;20028;-48
2022/01/01 01:17:23;;;;;;;3.70;2.92;;;;;;;12.02;59.92;99916.13;5090801;28;20525;-51
2022/01/01 01:19:49;;;;;;;3.60;2.75;;;;;;;12.11;59.86;99909.53;5090972;28;20110;-51
2022/01/01 01:22:14;;;;;;;3.85;2.72;;;;;;;11.80;60.21;99896.03;5091023;28;20032;-48
2022/01/01 01:24:40;;;;;;;5.45;2.97;;;;;;;11.84;59.99;99899.91;5091198;28;20039;-46
2022/01/01 01:27:06;;;;;;;4.97;3.10;;;;;;;11.76;60.20;99890.28;5091116;28;20031;-47
2022/01/01 01:29:33;;;;;;;4.68;2.92;;;;;;;11.73;60.80;99888.03;5091235;28;20020;-48
2022/01/01 01:31:59;;;;;;;5.40;3.40;;;;;;;11.52;60.87;99884.56;5091395;28;20023;-47
2022/01/01 01:34:24;;;;;;;5.85;3.45;;;;;;;11.69;60.87;99881.47;5090903;28;20494;-47
2022/01/01 01:36:50;;;;;;;8.15;3.88;;;;;;;11.57;61.24;99875.94;5091154;28;20094;-48
2022/01/01 01:39:15;;;;;;;8.55;4.22;;;;;;;11.66;60.61;99888.03;5090916;28;20028;-50
2022/01/01 01:41:43;;;;;;;6.65;4.25;;;;;;;11.39;62.12;99883.78;5089234;28;20028;-48
2022/01/01 01:44:29;;;;;;;4.75;3.20;;;;;;;11.61;61.11;99887.84;5090549;28;20031;-48
2022/01/01 01:46:55;;;;;;;5.30;3.10;;;;;;;11.32;62.43;99873.91;5090722;28;20034;-50
2022/01/01 01:49:20;;;;;;;7.43;3.50;;;;;;;11.31;61.73;99877.63;5089723;28;20016;-50
2022/01/01 01:51:46;;;;;;;7.75;3.40;;;;;;;11.32;61.70;99881.09;5071962;28;20361;-49
2022/01/01 01:54:13;;;;;;;5.25;3.45;;;;;;;10.94;62.80;99882.47;5079530;28;20028;-47
2022/01/01 01:56:38;;;;;;;6.68;3.70;;;;;;;10.90;63.49;99880.44;5089288;28;20039;-47
2022/01/01 01:59:04;;;;;;;5.40;3.35;;;;;;;11.17;63.03;99881.28;5071965;28;20024;-48
2022/01/01 02:01:30;;;;;;;6.03;3.65;;;;;;;11.05;63.20;99880.25;5090492;28;20024;-49
2022/01/01 02:03:57;;;;;;;6.90;3.95;;;;;;;11.02;62.92;99884.13;5090485;28;20078;-49
2022/01/01 02:06:24;;;;;;;6.25;3.70;;;;;;;11.00;63.56;99874.72;5084312;28;20057;-49
2022/01/01 02:08:51;;;;;;;5.65;3.67;;;;;;;11.07;63.45;99873.69;5069986;28;20044;-48
2022/01/01 02:11:18;;;;;;;4.93;3.38;;;;;;;10.95;63.63;99872.66;5070142;28;20021;-48
2022/01/01 02:18:52;;;;;;;5.40;3.47;;;;;;;10.72;64.33;99865.88;5068709;28;20127;-49
2022/01/01 02:21:19;;;;;;;8.52;3.97;;;;;;;10.73;63.70;99862.16;5069948;28;20086;-49
2022/01/01 02:23:46;;;;;;;4.82;3.35;;;;;;;10.70;64.01;99857.25;5069990;28;20029;-46
2022/01/01 02:26:15;;;;;;;5.38;3.50;;;;;;;10.88;62.84;99867.31;5070082;28;20031;-51
2022/01/01 02:28:43;;;;;;;5.60;3.50;;;;;;;11.01;62.93;99866.53;5069881;28;20337;-49
2022/01/01 02:31:09;;;;;;;4.82;3.53;;;;;;;10.85;63.06;99870.41;5069587;28;20024;-50
2022/01/01 02:33:35;;;;;;;4.95;3.40;;;;;;;10.69;64.16;99878.75;5069986;28;20632;-49
2022/01/01 02:36:00;;;;;;;6.55;3.63;;;;;;;10.73;64.20;99878.13;5069112;28;20090;-47
2022/01/01 02:38:26;;;;;;;4.78;3.28;;;;;;;10.63;64.47;99871.56;5069770;28;20024;-50
2022/01/01 02:40:51;;;;;;;5.38;3.05;;;;;;;10.61;64.23;99870.97;5069947;28;20040;-48
2022/01/01 02:43:18;;;;;;;4.97;3.30;;;;;;;10.79;63.30;99867.72;5069974;28;20094;-47
2022/01/01 02:45:43;;;;;;;5.10;3.10;;;;;;;10.66;64.33;99872.00;5069782;28;20033;-49
2022/01/01 02:48:12;;;;;;;5.00;3.20;;;;;;;10.71;63.44;99860.75;5069699;28;20031;-47
2022/01/01 02:50:37;;;;;;;4.43;3.15;;;;;;;10.88;63.17;99872.66;5069928;28;20020;-47
2022/01/01 02:53:03;;;;;;;4.10;3.00;;;;;;;10.98;63.41;99860.78;5071426;28;20519;-49
2022/01/01 02:55:28;;;;;;;16.73;9.95;;;;;;;11.04;62.35;99867.94;5089740;28;20070;-47
2022/01/01 02:57:53;;;;;;;8.27;5.05;;;;;;;10.84;63.39;99870.59;5089224;28;20090;-50
2022/01/01 03:00:19;;;;;;;5.63;3.90;;;;;;;10.91;63.09;99877.56;5089729;28;20095;-49
2022/01/01 03:02:45;;;;;;;3.55;2.80;;;;;;;10.76;64.04;99882.25;5089935;28;20093;-50
2022/01/01 03:05:10;;;;;;;4.53;2.70;;;;;;;10.74;63.77;99878.97;5089856;28;20047;-48
2022/01/01 03:07:36;;;;;;;4.70;2.58;;;;;;;10.68;63.63;99883.25;5089710;28;20451;-49
2022/01/01 03:10:03;;;;;;;3.72;2.55;;;;;;;10.77;63.78;99886.53;5089764;28;20020;-50
2022/01/01 03:12:28;;;;;;;4.78;2.75;;;;;;;10.67;63.76;99881.59;5090032;28;20627;-49
2022/01/01 03:14:54;;;;;;;3.88;2.60;;;;;;;10.55;64.70;99876.06;5089807;28;20008;-48
2022/01/01 03:17:19;;;;;;;4.95;2.95;;;;;;;10.75;64.60;99877.94;5088381;28;20090;-48
2022/01/01 03:19:45;;;;;;;4.43;2.88;;;;;;;10.82;64.09;99881.44;5089362;28;20027;-47
2022/01/01 03:22:10;;;;;;;3.50;2.80;;;;;;;10.95;63.74;99883.31;5089116;28;20031;-49
2022/01/01 03:24:35;;;;;;;5.63;2.50;;;;;;;10.64;65.16;99871.38;5089825;28;20460;-49
2022/01/01 03:27:01;;;;;;;4.55;2.60;;;;;;;10.76;65.31;99884.91;5089947;28;20028;-48
2022/01/01 03:29:28;;;;;;;3.47;2.42;;;;;;;11.03;64.20;99879.66;5075808;28;20028;-48
2022/01/01 03:31:54;;;;;;;4.80;2.78;;;;;;;11.17;63.93;99881.28;5073324;28;20035;-49
2022/01/01 03:34:21;;;;;;;3.30;2.58;;;;;;;11.25;62.98;99877.59;5073106;28;20024;-48
2022/01/01 03:36:47;;;;;;;4.13;2.40;;;;;;;11.29;63.15;99884.16;5090974;28;20329;-47
2022/01/01 03:39:12;;;;;;;3.60;2.60;;;;;;;11.29;62.52;99885.00;5093302;28;20031;-48
2022/01/01 03:41:38;;;;;;;5.55;2.40;;;;;;;11.22;62.79;99881.50;5093280;28;20507;-50
2022/01/01 03:44:03;;;;;;;3.40;2.45;;;;;;;11.11;63.37;99872.25;5093346;28;20024;-50
2022/01/01 03:46:29;;;;;;;4.13;2.40;;;;;;;11.25;62.93;99878.44;5092630;28;20020;-51
2022/01/01 03:48:54;;;;;;;4.93;2.65;;;;;;;11.11;63.30;99874.94;5092993;28;20055;-47
2022/01/01 03:51:20;;;;;;;3.42;2.50;;;;;;;11.17;63.59;99867.16;5079094;28;20059;-47
2022/01/01 03:53:45;;;;;;;4.07;2.60;;;;;;;11.19;63.06;99862.44;5072548;28;20024;-46
2022/01/01 03:56:11;;;;;;;3.47;2.40;;;;;;;11.28;62.68;99858.56;5091766;28;20031;-47
2022/01/01 03:58:37;;;;;;;3.03;2.22;;;;;;;11.41;62.87;99860.41;5093242;28;20081;-47
2022/01/01 04:01:03;;;;;;;3.88;2.30;;;;;;;11.34;62.82;99855.88;5092805;28;20343;-47
2022/01/01 04:03:28;;;;;;;2.92;2.13;;;;;;;11.37;62.73;99848.53;5092917;28;20032;-49
2022/01/01 04:05:53;;;;;;;3.60;2.13;;;;;;;11.17;63.05;99856.50;5093085;28;20028;-46
2022/01/01 04:08:19;;;;;;;2.92;2.15;;;;;;;11.57;62.18;99838.63;5092531;28;20424;-49
2022/01/01 04:10:44;;;;;;;3.67;2.30;;;;;;;11.26;62.73;99834.78;5092727;28;20076;-48
2022/01/01 04:13:10;;;;;;;3.72;2.38;;;;;;;11.53;62.44;99830.22;5092800;28;20031;-47
2022/01/01 04:15:36;;;;;;;4.50;2.60;;;;;;;11.41;62.42;99831.91;5092666;28;20028;-48
2022/01/01 04:18:07;;;;;;;4.15;2.53;;;;;;;11.33;62.80;99830.28;5092516;28;20020;-48
2022/01/01 04:20:32;;;;;;;4.30;2.30;;;;;;;11.37;63.02;99816.53;5092645;28;20060;-47
2022/01/01 04:22:58;;;;;;;3.35;2.40;;;;;;;11.35;62.53;99814.91;5083182;28;20253;-51
2022/01/01 04:25:24;;;;;;;2.33;1.80;;;;;;;11.59;61.76;99814.44;5072103;28;20033;-48
2022/01/01 04:27:50;;;;;;;3.33;2.03;;;;;;;11.47;61.69;99815.06;5072368;28;20468;-49
2022/01/01 04:30:16;;;;;;;3.15;2.00;;;;;;;11.51;61.49;99813.63;5072024;28;20149;-48
2022/01/01 04:32:41;;;;;;;3.35;2.10;;;;;;;11.61;61.83;99810.53;5072245;28;20113;-47
2022/01/01 04:35:07;;;;;;;3.60;1.92;;;;;;;11.87;60.46;99817.66;5070738;28;20218;-49
2022/01/01 04:37:33;;;;;;;3.17;2.10;;;;;;;11.88;61.04;99821.97;5104491;28;20364;-48
2022/01/01 04:39:59;;;;;;;2.47;1.90;;;;;;;11.75;61.48;99814.00;5071777;28;20370;-48
2022/01/01 04:42:27;;;;;;;2.70;1.90;;;;;;;11.70;61.71;99811.94;5072126;28;20028;-49
2022/01/01 04:44:53;;;;;;;2.58;1.90;;;;;;;11.71;61.73;99813.59;5071582;28;20483;-50
2022/01/01 04:47:18;;;;;;;2.58;1.83;;;;;;;11.87;60.49;99803.50;5071857;28;20036;-50
2022/01/01 04:49:44;;;;;;;3.00;1.95;;;;;;;11.62;61.76;99809.53;5071929;28;20021;-48
2022/01/01 04:52:09;;;;;;;2.40;1.73;;;;;;;11.88;60.93;99797.97;5071707;28;20028;-48
2022/01/01 04:54:39;;;;;;;3.35;1.90;;;;;;;11.91;61.22;99794.09;5076081;28;20055;-48
2022/01/01 04:57:05;;;;;;;4.00;2.10;;;;;;;11.95;60.86;99799.81;5092128;28;20131;-47
2022/01/01 04:59:30;;;;;;;2.83;1.92;;;;;;;11.85;60.23;99768.25;5090447;28;20541;-48
2022/01/01 05:01:56;;;;;;;2.90;2.10;;;;;;;11.90;60.74;99803.94;5091662;28;20396;-48
2022/01/01 05:04:21;;;;;;;3.05;1.90;;;;;;;11.80;61.61;99806.19;5092108;28;20035;-47
2022/01/01 05:06:49;;;;;;;2.90;1.80;;;;;;;11.98;60.55;99815.41;5091399;28;20613;-47
2022/01/01 05:09:18;;;;;;;3.05;2.15;;;;;;;11.83;61.23;99804.97;5092360;28;20062;-49
2022/01/01 05:11:43;;;;;;;3.10;2.05;;;;;;;11.95;60.91;99795.28;5092305;28;20024;-49
2022/01/01 05:14:09;;;;;;;2.92;1.90;;;;;;;12.03;60.47;99800.41;5093064;28;20413;-54
2022/01/01 05:16:35;;;;;;;2.95;1.92;;;;;;;11.97;60.77;99797.75;5091889;28;20499;-55
2022/01/01 05:19:00;;;;;;;3.55;2.00;;;;;;;12.16;60.20;99802.19;5093062;28;20111;-46
2022/01/01 05:21:32;;;;;;;2.78;1.90;;;;;;;12.32;59.75;99804.38;5092869;28;20039;-47
2022/01/01 05:23:58;;;;;;;2.63;1.77;;;;;;;12.14;60.32;99798.91;5092883;28;20036;-48
2022/01/01 05:26:24;;;;;;;2.80;1.90;;;;;;;11.93;60.89;99795.50;5093071;28;20035;-53
2022/01/01 05:28:49;;;;;;;2.88;1.83;;;;;;;11.80;61.80;99794.69;5092866;28;20409;-48
2022/01/01 05:31:19;;;;;;;2.90;1.98;;;;;;;11.92;61.30;99803.72;5092483;28;20032;-49
2022/01/01 05:33:48;;;;;;;;;;;;;;;12.05;60.94;99802.84;5092212;28;20110;-47
2022/01/01 05:36:13;;;;;;;2.33;1.90;;;;;;;11.90;61.23;99803.13;5091890;28;19919;-48
2022/01/01 05:38:41;;;;;;;2.80;2.08;;;;;;;11.88;61.70;99797.13;5091598;28;20031;-50
2022/01/01 05:41:06;;;;;;;3.22;2.15;;;;;;;12.14;60.34;99796.25;5091788;28;20051;-49
2022/01/01 05:43:32;;;;;;;3.15;1.98;;;;;;;12.03;60.91;99791.56;5091616;28;20059;-47
2022/01/01 05:45:57;;;;;;;2.75;2.00;;;;;;;12.23;60.74;99808.31;5091637;28;20089;-50
2022/01/01 05:48:22;;;;;;;4.18;2.00;;;;;;;11.99;61.23;99807.19;5091857;28;20426;-49
2022/01/01 05:50:48;;;;;;;3.85;2.03;;;;;;;12.18;61.23;99810.78;5091812;28;20257;-49
2022/01/01 05:53:14;;;;;;;2.17;1.67;;;;;;;12.04;60.63;99811.88;5091160;28;20161;-48
2022/01/01 05:55:40;;;;;;;3.53;1.83;;;;;;;11.96;61.74;99812.94;5091405;28;20097;-48
2022/01/01 05:58:05;;;;;;;2.80;2.00;;;;;;;12.13;61.38;99814.09;5091344;28;20028;-48
2022/01/01 06:00:31;;;;;;;2.92;1.92;;;;;;;11.95;61.61;99815.81;5091381;28;20028;-48
2022/01/01 06:02:59;;;;;;;3.78;2.40;;;;;;;12.07;60.94;99822.97;5091461;28;20071;-51
2022/01/01 06:05:26;;;;;;;3.25;2.17;;;;;;;12.05;60.99;99824.19;5090137;28;20395;-49
2022/01/01 06:07:52;;;;;;;4.30;2.38;;;;;;;12.02;61.22;99822.75;5090796;28;20051;-50
2022/01/01 06:10:18;;;;;;;3.50;2.28;;;;;;;12.03;60.79;99827.09;5091565;28;20055;-48
2022/01/01 06:12:43;;;;;;;3.95;1.98;;;;;;;11.99;60.88;99825.03;5090878;28;20028;-48
2022/01/01 06:15:09;;;;;;;2.60;2.08;;;;;;;12.23;60.55;99828.84;5090876;28;20043;-48
2022/01/01 06:17:34;;;;;;;3.28;1.95;;;;;;;12.08;60.71;99829.91;5091196;28;20101;-49
2022/01/01 06:20:00;;;;;;;3.85;2.50;;;;;;;12.37;60.07;99833.06;5091533;28;20097;-48
2022/01/01 06:22:25;;;;;;;3.70;2.15;;;;;;;12.38;59.20;99837.41;5091034;28;20050;-48
2022/01/01 06:24:51;;;;;;;3.42;2.20;;;;;;;12.20;59.79;99842.59;5091012;28;20027;-48
2022/01/01 06:27:16;;;;;;;4.68;3.17;;;;;;;12.17;59.38;99840.38;5090983;28;20028;-49
2022/01/01 06:29:42;;;;;;;3.60;2.47;;;;;;;12.11;59.70;99853.50;5090650;28;20076;-48
2022/01/01 06:32:07;;;;;;;3.58;2.42;;;;;;;12.03;60.07;99855.59;5090528;28;20027;-48
2022/01/01 06:34:33;;;;;;;3.85;2.60;;;;;;;12.00;60.00;99856.03;5090977;28;20040;-48
2022/01/01 06:36:58;;;;;;;3.58;2.20;;;;;;;12.00;59.93;99851.50;5090792;28;20028;-48
2022/01/01 06:39:23;;;;;;;5.22;2.42;;;;;;;12.15;59.70;99858.41;5090703;28;20427;-48
2022/01/01 06:41:49;;;;;;;3.38;2.50;;;;;;;11.96;60.68;99863.63;5090548;28;20028;-48
2022/01/01 06:44:14;;;;;;;4.28;2.30;;;;;;;11.85;61.29;99857.03;5090526;28;20435;-47
2022/01/01 06:46:40;;;;;;;3.83;2.45;;;;;;;11.93;60.57;99851.50;5090514;28;20028;-47
2022/01/01 06:49:05;;;;;;;3.17;2.30;;;;;;;11.68;61.62;99854.00;5090812;28;20364;-47
2022/01/01 06:51:32;;;;;;;5.13;2.45;;;;;;;11.86;61.80;99850.69;5090658;28;20464;-49
2022/01/01 06:53:58;;;;;;;4.78;2.50;;;;;;;12.20;60.10;99856.75;5090054;28;20472;-48
2022/01/01 06:56:23;;;;;;;8.88;4.57;;;;;;;12.31;60.00;99864.09;5090465;28;20041;-49
2022/01/01 06:58:49;;;;;;;11.80;7.38;;;;;;;12.20;59.97;99864.75;5090604;28;20032;-47
2022/01/01 07:01:14;;;;;;;70.88;37.60;;;;;;;12.25;60.30;99856.13;5089717;28;20472;-49
2022/01/01 07:03:40;;;;;;;6.57;3.75;;;;;;;12.48;59.34;99861.75;5089835;28;20039;-48
2022/01/01 07:06:06;;;;;;;3.17;2.40;;;;;;;12.64;58.24;99867.63;5092955;28;20043;-50
2022/01/01 07:08:31;;;;;;;3.75;2.20;;;;;;;12.64;57.83;99872.97;5093839;28;20048;-37
2022/01/01 07:10:57;;;;;;;3.67;1.92;;;;;;;12.39;57.80;99841.69;5094161;28;20054;-38
2022/01/01 07:13:22;;;;;;;3.78;2.08;;;;;;;12.67;57.62;99872.56;5094382;28;20051;-39
2022/01/01 07:15:48;;;;;;;3.72;1.92;;;;;;;12.74;56.65;99876.00;5094058;28;20031;-38
2022/01/01 07:18:13;;;;;;;3.17;2.05;;;;;;;12.61;56.86;99878.75;5094098;28;20031;-36
2022/01/01 07:20:39;;;;;;;3.17;2.30;;;;;;;12.75;56.19;99880.31;5093986;28;20554;-49
2022/01/01 07:23:04;;;;;;;2.42;1.83;;;;;;;12.69;56.01;99894.53;5093621;28;20028;-50
2022/01/01 07:25:30;;;;;;;3.10;2.10;;;;;;;12.51;55.98;99866.69;5093698;28;20059;-48
2022/01/01 07:27:55;;;;;;;2.92;2.00;;;;;;;12.77;55.90;99894.25;5093321;28;20059;-48
2022/01/01 07:30:21;;;;;;;3.38;2.30;;;;;;;12.86;55.90;99903.66;5093604;28;20106;-46
2022/01/01 07:32:47;;;;;;;3.67;2.20;;;;;;;13.00;55.12;99909.75;5093629;28;20035;-46
2022/01/01 07:35:13;;;;;;;2.70;1.90;;;;;;;12.81;55.83;99908.00;5093273;28;20052;-48
2022/01/01 07:37:39;;;;;;;2.42;2.03;;;;;;;12.88;55.40;99906.94;5093697;28;20098;-38
2022/01/01 07:40:05;;;;;;;3.60;2.50;;;;;;;13.12;54.65;99891.19;5093171;28;20028;-38
2022/01/01 07:42:31;;;;;;;3.47;2.40;;;;;;;13.20;55.20;99898.13;5093269;28;20427;-38
2022/01/01 07:44:57;;;;;;;3.90;2.42;;;;;;;13.13;54.92;99895.47;5093545;28;20028;-38
2022/01/01 07:47:22;;;;;;;3.00;2.30;;;;;;;13.16;55.67;99883.56;5093501;28;20043;-39
2022/01/01 07:49:48;;;;;;;3.42;2.10;;;;;;;12.96;56.24;99895.19;5093150;28;20093;-38
2022/01/01 07:52:13;;;;;;;3.17;2.20;;;;;;;13.10;55.30;99887.91;5092853;28;20042;-37
2022/01/01 07:54:38;;;;;;;2.72;2.05;;;;;;;13.34;54.84;99888.16;5092935;28;20036;-37
2022/01/01 07:57:04;;;;;;;4.32;2.90;;;;;;;13.43;54.61;99876.97;5092702;28;20039;-38
2022/01/01 07:59:30;;;;;;;5.05;3.50;;;;;;;13.73;53.70;99878.16;5093300;28;20031;-38
2022/01/01 08:01:55;;;;;;;2.95;2.00;;;;;;;13.77;53.61;99868.66;5093274;28;20100;-39
2022/01/01 08:04:20;;;;;;;3.60;2.72;;;;;;;13.76;53.48;99854.47;5092848;28;20467;-38
2022/01/01 08:06:46;;;;;;;7.82;4.53;;;;;;;13.96;52.97;99854.25;5092922;28;20036;-39
2022/01/01 08:09:13;;;;;;;2.72;2.15;;;;;;;13.89;53.49;99856.19;5084782;28;20027;-38
2022/01/01 08:11:39;;;;;;;2.75;1.98;;;;;;;13.87;53.09;99858.25;5092944;28;20020;-38
2022/01/01 08:14:05;;;;;;;3.03;2.03;;;;;;;14.22;52.81;99868.34;5093080;28;20035;-38
2022/01/01 08:16:30;;;;;;;2.50;1.88;;;;;;;14.00;53.17;99860.78;5092349;28;20020;-38
2022/01/01 08:18:55;;;;;;;3.05;2.20;;;;;;;14.05;53.55;99860.13;5092876;28;20033;-37
2022/01/01 08:21:21;;;;;;;3.50;2.50;;;;;;;13.94;53.58;99867.03;5092735;28;20033;-38
2022/01/01 08:23:46;;;;;;;5.15;2.58;;;;;;;13.91;53.80;99875.50;5090349;28;20028;-48
2022/01/01 08:26:12;;;;;;;3.22;2.28;;;;;;;14.07;53.98;99861.53;5093123;28;20452;-51
2022/01/01 08:28:37;;;;;;;5.15;2.38;;;;;;;14.06;53.87;99865.25;5093294;28;20089;-51
2022/01/01 08:31:04;;;;;;;4.28;2.42;;;;;;;13.77;54.43;99861.44;5093200;28;20400;-49
2022/01/01 08:33:29;;;;;;;4.07;2.47;;;;;;;14.08;54.01;99879.22;5093473;28;20124;-51
2022/01/01 08:35:55;;;;;;;3.13;2.20;;;;;;;14.02;54.07;99874.75;5091486;28;20361;-47
2022/01/01 08:38:20;;;;;;;4.40;2.58;;;;;;;14.23;53.93;99876.16;5091986;28;20035;-49
2022/01/01 08:40:46;;;;;;;30.08;17.90;;;;;;;14.30;53.43;99883.28;5091724;28;20032;-50
2022/01/01 08:43:11;;;;;;;7.45;4.82;;;;;;;14.41;53.16;99874.50;5092151;28;20032;-50
2022/01/01 08:45:37;;;;;;;5.05;3.10;;;;;;;14.33;53.00;99890.88;5091749;28;20031;-47
2022/01/01 08:48:04;;;;;;;4.30;2.90;;;;;;;14.37;53.57;99900.91;5092124;28;20019;-48
2022/01/01 08:50:29;;;;;;;4.65;2.70;;;;;;;14.31;53.19;99893.78;5088943;28;20024;-48
2022/01/01 08:52:55;;;;;;;3.88;2.40;;;;;;;14.21;53.58;99902.34;5092263;28;20467;-47
2022/01/01 08:55:21;;;;;;;3.85;2.42;;;;;;;14.37;53.89;99910.81;5092575;28;20032;-47
2022/01/01 08:57:46;;;;;;;5.82;2.60;;;;;;;14.37;53.57;99908.94;5092449;28;20445;-48
2022/01/01 09:00:12;;;;;;;4.07;2.78;;;;;;;14.56;53.11;99911.63;5092311;28;20036;-48
2022/01/01 09:02:38;;;;;;;5.57;2.80;;;;;;;14.43;53.40;99909.91;5092673;28;20043;-48
2022/01/01 09:05:03;;;;;;;4.03;2.70;;;;;;;14.49;53.29;99903.69;5092724;28;20028;-47
2022/01/01 09:07:29;;;;;;;4.60;2.70;;;;;;;14.49;53.59;99906.34;5092198;28;20056;-47
2022/01/01 09:09:58;;;;;;;4.70;2.63;;;;;;;14.63;53.47;99907.03;5092231;28;20028;-47
2022/01/01 09:12:25;;;;;;;7.20;5.10;;;;;;;14.62;52.75;99903.53;5091449;28;20030;-48
2022/01/01 09:14:50;;;;;;;6.07;3.40;;;;;;;14.93;52.91;99903.53;5091004;28;20034;-49
2022/01/01 09:17:16;;;;;;;5.13;3.03;;;;;;;14.94;52.64;99897.13;5090967;28;20396;-50
2022/01/01 09:19:42;;;;;;;4.60;2.78;;;;;;;15.18;52.40;99895.34;5091168;28;20068;-47
2022/01/01 09:22:07;;;;;;;48.50;26.63;;;;;;;15.45;51.43;99895.72;5091071;28;20024;-47
2022/01/01 09:24:33;;;;;;;4.90;3.10;;;;;;;15.38;52.16;99889.63;5091173;28;20024;-49
2022/01/01 09:26:59;;;;;;;5.10;2.88;;;;;;;15.58;51.14;99892.00;5090654;28;20027;-48
2022/01/01 09:29:24;;;;;;;4.63;2.80;;;;;;;15.55;51.66;99901.31;5091668;28;20536;-50
2022/01/01 09:31:50;;;;;;;5.32;3.00;;;;;;;15.67;51.41;99895.97;5091869;28;20032;-48
2022/01/01 09:34:15;;;;;;;6.53;3.40;;;;;;;15.46;51.70;99883.97;5091860;28;20028;-47
2022/01/01 09:36:41;;;;;;;8.10;3.55;;;;;;;15.85;51.44;99889.69;5091683;28;20154;-48
2022/01/01 09:39:06;;;;;;;7.45;3.30;;;;;;;15.79;51.67;99887.94;5091430;28;20032;-49
2022/01/01 09:41:32;;;;;;;5.30;3.10;;;;;;;15.63;51.25;99892.09;5089943;28;20031;-48
2022/01/01 09:43:58;;;;;;;6.78;3.65;;;;;;;15.66;51.95;99894.31;5091844;28;20436;-49
2022/01/01 09:46:25;;;;;;;9.65;3.85;;;;;;;15.90;51.46;99884.44;5091297;28;20035;-51
2022/01/01 09:48:51;;;;;;;4.20;3.05;;;;;;;15.92;51.64;99884.22;5091817;28;20145;-48
2022/01/01 09:51:17;;;;;;;7.40;2.90;;;;;;;15.94;51.57;99888.28;5091483;28;20028;-47
2022/01/01 09:53:42;;;;;;;3.50;2.80;;;;;;;15.71;51.96;99890.97;5091293;28;20035;-48
2022/01/01 09:56:08;;;;;;;4.45;2.90;;;;;;;15.78;52.17;99891.66;5091194;28;20406;-50
2022/01/01 09:58:34;;;;;;;6.20;3.38;;;;;;;15.76;52.47;99891.09;5091083;28;20031;-48
2022/01/01 10:01:02;;;;;;;5.63;3.33;;;;;;;15.83;51.70;99887.22;5091323;28;20043;-49
2022/01/01 10:03:35;;;;;;;8.43;3.45;;;;;;;15.84;52.42;99893.44;5091188;28;20035;-47
2022/01/01 10:06:04;;;;;;;4.90;3.20;;;;;;;15.96;51.43;99877.31;5089515;28;20066;-50
2022/01/01 10:08:30;;;;;;;;;;;;;;;15.97;50.65;99876.25;5091291;28;20048;-49
2022/01/01 10:10:55;;;;;;;6.25;3.05;;;;;;;16.02;51.47;99879.06;5091242;28;19930;-48
2022/01/01 10:13:32;;;;;;;4.40;2.80;;;;;;;15.90;51.46;99864.84;5091167;28;20107;-47
2022/01/01 10:15:58;;;;;;;4.10;2.88;;;;;;;16.25;51.11;99880.88;5090757;28;20028;-50
2022/01/01 10:18:28;;;;;;;4.70;3.22;;;;;;;16.43;50.67;99871.84;5090817;28;20043;-51
2022/01/01 10:21:10;;;;;;;5.95;3.00;;;;;;;16.99;49.54;99880.16;5090925;28;20032;-50
2022/01/01 10:23:37;;;;;;;3.85;2.60;;;;;;;16.82;49.43;99872.06;5090738;28;20340;-50
2022/01/01 10:29:31;;;;;;;3.97;2.47;;;;;;;16.95;48.82;99860.19;5091433;28;20119;-48
2022/01/01 10:32:07;;;;;;;4.15;2.90;;;;;;;16.91;48.92;99862.53;5090832;28;20499;-48
2022/01/01 10:34:34;;;;;;;4.18;2.80;;;;;;;16.98;48.41;99865.91;5090868;28;20376;-48
2022/01/01 10:37:01;;;;;;;3.95;2.50;;;;;;;16.73;48.67;99852.78;5091127;28;20107;-50
2022/01/01 10:39:27;;;;;;;4.18;2.58;;;;;;;16.55;49.02;99861.06;5090535;28;20107;-49
2022/01/01 10:41:53;;;;;;;5.15;2.53;;;;;;;16.94;49.02;99862.03;5090680;28;20020;-47
2022/01/01 10:44:23;;;;;;;3.95;2.88;;;;;;;16.71;49.32;99864.81;5090651;28;20062;-48
2022/01/01 10:46:48;;;;;;;4.75;3.20;;;;;;;16.91;48.36;99853.69;5090609;28;20039;-50
2022/01/01 10:52:28;;;;;;;6.15;3.72;;;;;;;17.06;47.84;99858.47;5091001;28;20146;-51
2022/01/01 10:55:00;;;;;;;4.15;2.90;;;;;;;17.15;47.32;99860.53;5090634;28;20106;-49
2022/01/01 10:57:38;;;;;;;3.78;2.50;;;;;;;16.87;47.78;99864.09;5090483;28;20055;-48
2022/01/01 11:00:03;;;;;;;4.80;2.28;;;;;;;17.02;47.77;99876.16;5090330;28;20178;-49
2022/01/01 11:02:32;;;;;;;3.53;2.30;;;;;;;16.87;47.77;99864.09;5090605;28;20373;-50
2022/01/01 11:04:57;;;;;;;4.57;2.33;;;;;;;16.94;47.48;99863.91;5091132;28;20047;-49
2022/01/01 11:07:27;;;;;;;3.35;2.10;;;;;;;17.18;47.39;99859.22;5089198;28;20044;-50
2022/01/01 11:09:52;;;;;;;;;;;;;;;17.37;46.78;99857.91;5091034;28;20450;-50
2022/01/01 11:12:20;;;;;;;3.50;2.22;;;;;;;17.67;46.46;99858.59;5089336;28;19955;-48
2022/01/01 11:14:45;;;;;;;4.07;2.20;;;;;;;17.56;46.22;99854.97;5089200;28;20101;-48
2022/01/01 11:17:11;;;;;;;3.75;2.10;;;;;;;17.24;46.54;99855.56;5089397;28;20024;-47
2022/01/01 11:19:36;;;;;;;4.18;2.08;;;;;;;17.12;46.99;99854.84;5088936;28;20464;-48
2022/01/01 11:22:02;;;;;;;3.00;1.80;;;;;;;17.33;46.64;99858.66;5088958;28;20476;-50
2022/01/01 11:24:28;;;;;;;3.08;1.90;;;;;;;17.59;45.72;99841.84;5088947;28;20020;-50
2022/01/01 11:26:53;;;;;;;3.20;2.15;;;;;;;17.41;46.61;99852.84;5089207;28;20043;-48
2022/01/01 11:29:18;;;;;;;3.08;2.00;;;;;;;17.31;46.52;99828.50;5088849;28;20031;-50
2022/01/01 11:31:44;;;;;;;5.40;2.30;;;;;;;17.17;47.02;99844.97;5088911;28;20085;-48
2022/01/01 11:34:10;;;;;;;3.22;2.40;;;;;;;17.25;47.31;99850.97;5090144;28;20031;-48
2022/01/01 11:36:35;;;;;;;2.90;2.15;;;;;;;17.48;47.00;99841.94;5071953;28;20024;-49
2022/01/01 11:39:07;;;;;;;3.40;2.10;;;;;;;17.51;46.53;99839.56;5090183;28;20020;-48
2022/01/01 11:41:41;;;;;;;3.20;2.15;;;;;;;17.70;46.27;99840.09;5071794;28;20032;-48